الصفحة الرئيسية
METAR-TAF:

METAR-TAF

مطار :

مطار لوس أنجلوس الدولي

لوس أنجلوس, كاليفورنيا, الولايات المتحدة

دائرة عرض: 33-56-17N, خط طول: 118-23-20W, ارتفاع: 38 متر

مراقبة الطقس الحالي

تاريخ ووقت الإصدار 34 دقيقة قبل الساعة 03:53UTC
ريح 8 عقدة من الغرب
درجة الحرارة 13°درجة مئوية
الرطوبة 77%
ضغط 1022 hPa
الرؤية: 16.1 كم
سماء صافية

METAR: KLAX 240353Z 27008KT 10SM CLR 13/09 A3018 RMK AO2 SLP220 T01330089

زمن: 20:27 (04:27 UTC)

توقعات

تاريخ ووقت الإصدار 1ساعة و 29 دقيقة قبل الساعة 02:58UTC
التوقعات صالحة من24 الساعة 03 UTC إلى 25 الساعة 06 UTC
ريح 7 عقدة من الغرب
الرؤية: 10 كم
سماء صافية
من 24 الساعة 0700 UTC
ريح 5 عقدة من الشرق/الشمال الشرقي
الرؤية: 10 كم
غيوم متفرقة على ارتفاع 25000 قدم
من 24 الساعة 2000 UTC
ريح 8 عقدة من الغرب
الرؤية: 10 كم
غيوم متفرقة على ارتفاع 25000 قدم
من 25 الساعة 0400 UTC
ريح 3 عقدةمن اتجاهات متغيرة
الرؤية: 10 كم
غيوم متفرقة على ارتفاع 25000 قدم

TAF: KLAX 240258Z 2403/2506 26007KT P6SM SKC FM240700 06005KT P6SM SCT250 FM242000 26008KT P6SM SCT250 FM250400 VRB03KT P6SM SCT250

أرصاد الطقس والتوقعات من أكثر من 4000 مطار (تقارير الطقس للمطار METAR والتنبؤ بالطقس بالمطارTAF).

المحطات المتاحة هي النقط الصفراء والحمراء على الخريطة.

حرك المؤشر فوق النقطة لمعرفة اسم المحطة.

ثم انقر لمعرفة أرصاد وتوقعات الطقس.

لتغيير الخارطة: اضغط على الأزرار الخضراء مع رمز الصليب الأسود للتكبير. على الزر الأخضر مع شرطة للتصغير، أو على الأسهم الخضراء للخرائط المجاورة.


METAR-TAF: